Time;durP1;ratioP1;P1;durP2;ratioP2;P2;SDS_P1;SDS_P2;PMS_P1;PMS_P2;Temp;Humidity;BMP_temperature;BMP_pressure;BME280_temperature;BME280_humidity;BME280_pressure;Samples;Min_cycle;Max_cycle;Signal;HPM_P1;HPM_P2
2021/12/07 00:01:37;;;;;;;10.60;3.88;;;;;;;-0.11;79.41;96686.03;5020033;28;20060;-59
2021/12/07 00:04:05;;;;;;;5.57;2.95;;;;;;;-0.07;78.71;96687.28;5020740;28;20432;-59
2021/12/07 00:06:32;;;;;;;7.93;4.03;;;;;;;-0.10;78.58;96677.88;5020512;28;20056;-59
2021/12/07 00:08:59;;;;;;;8.57;4.60;;;;;;;-0.04;78.97;96682.38;5021106;28;20050;-58
2021/12/07 00:11:29;;;;;;;5.78;3.53;;;;;;;-0.07;78.92;96681.97;5022577;28;20053;-58
2021/12/07 00:13:59;;;;;;;7.55;4.30;;;;;;;-0.12;79.44;96673.78;5020686;28;20064;-57
2021/12/07 00:16:27;;;;;;;9.27;5.63;;;;;;;-0.15;79.32;96682.94;5022756;28;20045;-58
2021/12/07 00:18:54;;;;;;;8.32;4.53;;;;;;;-0.22;79.57;96672.28;5021949;28;20587;-58
2021/12/07 00:21:21;;;;;;;6.50;2.95;;;;;;;-0.15;79.83;96673.13;5021853;28;20041;-58
2021/12/07 00:23:49;;;;;;;7.97;4.65;;;;;;;-0.25;80.63;96674.53;5022440;28;20054;-58
2021/12/07 00:26:35;;;;;;;9.68;6.07;;;;;;;-0.27;80.38;96680.88;5021541;28;20424;-57
2021/12/07 00:29:03;;;;;;;9.30;5.82;;;;;;;-0.27;81.01;96675.56;5021933;28;20052;-58
2021/12/07 00:31:39;;;;;;;10.23;5.47;;;;;;;-0.26;81.10;96676.38;5037608;28;20073;-58
2021/12/07 00:36:41;;;;;;;8.55;5.05;;;;;;;-0.50;83.69;96673.22;5020714;28;20049;-58
2021/12/07 00:39:09;;;;;;;7.57;4.00;;;;;;;-0.52;84.38;96669.94;5017474;28;20048;-58
2021/12/07 00:41:35;;;;;;;10.40;4.60;;;;;;;-0.54;85.42;96670.16;5019586;28;20060;-58
2021/12/07 00:44:03;;;;;;;8.55;5.43;;;;;;;-0.62;86.21;96662.34;5022040;28;20060;-57
2021/12/07 00:46:31;;;;;;;8.45;3.78;;;;;;;-0.61;87.11;96671.13;5038505;28;20107;-57
2021/12/07 00:48:58;;;;;;;8.40;4.80;;;;;;;-0.59;86.97;96666.44;5025951;28;20053;-57
2021/12/07 00:51:25;;;;;;;8.60;4.72;;;;;;;-0.61;87.04;96663.97;5025391;28;20045;-58
2021/12/07 00:53:52;;;;;;;8.93;4.22;;;;;;;-0.61;86.59;96668.47;5025936;28;20048;-58
2021/12/07 00:56:19;;;;;;;7.85;4.50;;;;;;;-0.64;86.68;96661.72;5025733;28;20091;-59
2021/12/07 00:58:47;;;;;;;8.23;4.40;;;;;;;-0.59;86.89;96671.75;5024855;28;20041;-59
2021/12/07 01:01:16;;;;;;;9.43;4.13;;;;;;;-0.64;87.69;96661.72;5024725;28;20047;-58
2021/12/07 01:03:43;;;;;;;7.05;3.95;;;;;;;-0.60;86.89;96664.78;5024493;28;20038;-58
2021/12/07 01:25:13;;;;;;;5.40;3.13;;;;;;;-0.41;86.20;96655.25;5025464;28;20626;-58
2021/12/07 01:27:40;;;;;;;4.22;2.17;;;;;;;-0.36;86.25;96658.16;5023083;28;20049;-59
2021/12/07 01:30:18;;;;;;;5.28;2.13;;;;;;;-0.29;85.58;96656.31;5025526;28;20052;-58
2021/12/07 01:35:59;;;;;;;4.95;2.55;;;;;;;-0.28;85.81;96657.97;5022425;28;20053;-57
2021/12/07 01:52:02;;;;;;;6.05;3.53;;;;;;;-0.48;88.31;96679.16;5023002;28;20044;-59
2021/12/07 01:59:49;;;;;;;6.53;2.38;;;;;;;-0.45;87.95;96691.22;5023018;28;20056;-59
2021/12/07 02:02:18;;;;;;;6.95;3.20;;;;;;;-0.46;88.07;96684.28;5039478;28;20060;-59
2021/12/07 02:04:46;;;;;;;3.20;2.10;;;;;;;-0.41;88.05;96687.16;5012905;28;20042;-59
2021/12/07 02:07:16;;;;;;;6.07;2.25;;;;;;;-0.37;88.49;96695.59;5022430;28;20037;-59
2021/12/07 02:09:52;;;;;;;6.10;2.35;;;;;;;-0.29;87.86;96704.19;5023020;28;20057;-59
2021/12/07 02:12:19;;;;;;;4.78;2.30;;;;;;;-0.29;87.77;96690.88;5020729;28;20053;-58
2021/12/07 02:14:45;;;;;;;4.50;2.35;;;;;;;-0.28;87.82;96689.06;5022203;28;20049;-59
2021/12/07 02:17:17;;;;;;;4.03;2.05;;;;;;;-0.22;87.91;96692.78;5022183;28;20050;-59
2021/12/07 02:19:47;;;;;;;5.13;2.53;;;;;;;-0.15;87.55;96690.94;5019598;28;20038;-59
2021/12/07 02:22:14;;;;;;;3.70;2.28;;;;;;;-0.13;87.51;96702.22;5022447;28;20061;-59
2021/12/07 02:24:46;;;;;;;4.05;1.98;;;;;;;-0.06;87.35;96699.56;5021974;28;20072;-59
2021/12/07 02:27:13;;;;;;;3.30;1.60;;;;;;;-0.06;87.84;96704.88;5022486;28;20080;-59
2021/12/07 02:29:41;;;;;;;4.78;2.45;;;;;;;-0.10;88.22;96700.97;5018513;28;20032;-58
2021/12/07 02:32:09;;;;;;;5.13;2.00;;;;;;;-0.01;87.70;96697.94;5022560;28;20050;-58
2021/12/07 02:34:37;;;;;;;5.70;2.00;;;;;;;-0.09;88.07;96718.59;5023207;28;20064;-58
2021/12/07 02:37:05;;;;;;;2.90;1.63;;;;;;;0.04;88.47;96715.16;5038258;28;20049;-58
2021/12/07 02:39:36;;;;;;;2.78;1.10;;;;;;;0.10;88.32;96717.84;5022543;28;20041;-59
2021/12/07 02:42:06;;;;;;;2.53;1.27;;;;;;;0.07;87.99;96717.44;5038507;28;20072;-59
2021/12/07 02:44:34;;;;;;;2.85;1.25;;;;;;;0.20;88.01;96728.09;5023564;28;20540;-58
2021/12/07 02:47:04;;;;;;;2.20;1.20;;;;;;;0.33;87.25;96721.97;5022310;28;20046;-58
2021/12/07 02:49:31;;;;;;;0.88;0.60;;;;;;;0.40;87.36;96726.50;5023269;28;20038;-59
2021/12/07 02:51:59;;;;;;;2.20;1.10;;;;;;;0.41;87.01;96728.13;5021320;28;20045;-59
2021/12/07 02:54:26;;;;;;;2.03;1.00;;;;;;;0.38;86.96;96724.84;5021395;28;20047;-59
2021/12/07 02:56:54;;;;;;;2.15;0.88;;;;;;;0.41;87.49;96734.28;5021319;28;20045;-59
2021/12/07 02:59:21;;;;;;;2.08;1.02;;;;;;;0.48;87.44;96731.63;5023654;28;20045;-59
2021/12/07 03:01:58;;;;;;;1.88;1.00;;;;;;;0.49;88.14;96736.75;5022025;28;20533;-59
2021/12/07 03:04:34;;;;;;;1.13;0.68;;;;;;;0.90;87.31;96729.59;5021940;28;20378;-59
2021/12/07 03:26:09;;;;;;;3.13;0.70;;;;;;;0.98;87.16;96744.56;5021556;28;20045;-59
2021/12/07 03:28:45;;;;;;;1.80;0.65;;;;;;;0.93;87.51;96738.22;5022618;28;20068;-59
2021/12/07 03:31:16;;;;;;;2.28;0.90;;;;;;;0.93;87.37;96738.22;5022259;28;20103;-59
2021/12/07 03:33:47;;;;;;;1.90;1.00;;;;;;;0.94;87.55;96750.50;5020521;28;20052;-59
2021/12/07 03:36:14;;;;;;;1.52;0.85;;;;;;;0.93;86.93;96752.38;5021882;28;20523;-58
2021/12/07 03:38:42;;;;;;;2.13;0.80;;;;;;;0.95;86.64;96768.97;5022562;28;20046;-55
2021/12/07 03:41:10;;;;;;;0.77;0.47;;;;;;;1.08;86.18;96759.31;5021015;28;20076;-59
2021/12/07 03:43:38;;;;;;;0.70;0.50;;;;;;;1.24;85.14;96766.06;5020497;28;20567;-59
2021/12/07 03:46:05;;;;;;;1.63;0.60;;;;;;;1.21;85.74;96761.97;5021126;28;20679;-58
2021/12/07 03:48:34;;;;;;;2.20;0.90;;;;;;;1.20;85.89;96762.16;5021904;28;20107;-58
2021/12/07 03:51:00;;;;;;;1.13;0.32;;;;;;;1.21;85.91;96766.50;5021144;28;20060;-57
2021/12/07 03:53:29;;;;;;;1.80;0.70;;;;;;;1.21;85.79;96763.84;5021228;28;20038;-57
2021/12/07 03:55:58;;;;;;;4.07;1.00;;;;;;;1.23;85.89;96767.09;5022004;28;20048;-59
2021/12/07 03:58:26;;;;;;;2.05;0.73;;;;;;;1.24;85.67;96760.72;5021368;28;20041;-58
2021/12/07 04:00:53;;;;;;;0.80;0.40;;;;;;;1.32;85.49;96765.84;5022284;28;20041;-58
2021/12/07 04:03:21;;;;;;;2.25;0.60;;;;;;;1.36;84.99;96771.63;5020337;28;20053;-58
2021/12/07 04:05:52;;;;;;;1.38;0.60;;;;;;;1.36;85.47;96777.75;5021818;28;20050;-58
2021/12/07 04:08:25;;;;;;;1.63;0.80;;;;;;;1.43;85.02;96783.91;5019507;28;20041;-58
2021/12/07 04:10:55;;;;;;;1.88;0.80;;;;;;;1.46;85.13;96795.16;5005240;28;20034;-58
2021/12/07 04:13:22;;;;;;;2.83;0.90;;;;;;;1.39;85.13;96796.00;5020602;28;20048;-59
2021/12/07 04:15:49;;;;;;;2.13;0.80;;;;;;;1.50;84.78;96809.75;5021433;28;20512;-59
2021/12/07 04:18:17;;;;;;;3.65;1.17;;;;;;;1.41;85.14;96809.16;5021421;28;20068;-59
2021/12/07 04:20:44;;;;;;;2.15;0.88;;;;;;;1.39;84.99;96804.03;5019572;28;20108;-58
2021/12/07 04:23:11;;;;;;;2.58;1.23;;;;;;;1.26;86.03;96798.69;5019910;28;20183;-59
2021/12/07 04:25:38;;;;;;;3.75;1.00;;;;;;;1.13;87.01;96810.19;5021917;28;20111;-59
2021/12/07 04:28:05;;;;;;;5.47;1.30;;;;;;;1.04;87.17;96814.91;5021489;28;20057;-59
2021/12/07 04:30:35;;;;;;;4.18;2.22;;;;;;;1.02;87.63;96815.13;5021912;28;20045;-59
2021/12/07 04:33:04;;;;;;;3.00;1.30;;;;;;;1.05;87.74;96821.88;5020147;28;20042;-58
2021/12/07 04:35:32;;;;;;;3.20;1.27;;;;;;;1.08;87.53;96828.66;5022651;28;20049;-59
2021/12/07 04:37:58;;;;;;;4.30;1.02;;;;;;;0.94;87.55;96854.47;5021746;28;20800;-59
2021/12/07 04:40:28;;;;;;;5.20;1.60;;;;;;;0.54;89.28;96832.03;5021699;28;20060;-58
2021/12/07 04:42:55;;;;;;;2.65;1.17;;;;;;;0.49;88.93;96839.81;5022282;28;20576;-58
2021/12/07 04:45:46;;;;;;;3.35;1.58;;;;;;;0.36;88.76;96828.09;5020126;28;20041;-59
2021/12/07 04:58:53;;;;;;;2.28;1.20;;;;;;;0.32;88.46;96818.03;5019739;28;20640;-59
2021/12/07 05:01:19;;;;;;;3.13;1.20;;;;;;;0.44;87.70;96827.09;5022022;28;20067;-59
2021/12/07 05:03:48;;;;;;;6.30;1.63;;;;;;;0.59;87.34;96836.78;5021614;28;20049;-58
2021/12/07 05:06:16;;;;;;;5.25;1.90;;;;;;;0.59;87.64;96842.91;5021492;28;20045;-58
2021/12/07 05:08:53;;;;;;;7.25;2.42;;;;;;;0.57;88.05;96860.13;5020685;28;20049;-58
2021/12/07 05:11:44;;;;;;;1.90;0.90;;;;;;;0.63;88.02;96860.16;5021647;28;20060;-59
2021/12/07 05:16:57;;;;;;;17.55;2.22;;;;;;;0.70;87.55;96862.03;5021024;28;20455;-59
2021/12/07 05:25:06;;;;;;;4.88;1.60;;;;;;;0.77;87.42;96861.00;5021065;28;20053;-58
2021/12/07 05:38:35;;;;;;;5.53;1.77;;;;;;;0.93;85.41;96879.50;5023292;28;20045;-65
2021/12/07 05:41:02;;;;;;;6.15;2.08;;;;;;;0.92;85.52;96883.97;5024600;28;20041;-59
2021/12/07 05:43:30;;;;;;;4.18;1.50;;;;;;;0.87;85.97;96894.44;5023970;28;20061;-58
2021/12/07 05:45:58;;;;;;;5.03;1.33;;;;;;;0.78;85.75;96894.63;5023016;28;20068;-58
2021/12/07 05:48:24;;;;;;;5.50;1.60;;;;;;;0.85;85.40;96897.31;5021984;28;20053;-58
2021/12/07 05:50:51;;;;;;;7.07;1.67;;;;;;;0.94;84.60;96889.94;5023861;28;20045;-58
2021/12/07 05:53:17;;;;;;;4.82;1.40;;;;;;;0.99;84.10;96898.16;5024693;28;20052;-58
2021/12/07 05:55:44;;;;;;;6.10;1.63;;;;;;;1.11;83.43;96902.91;5024011;28;20095;-59
2021/12/07 05:58:14;;;;;;;8.13;1.25;;;;;;;1.17;83.22;96900.25;5023766;28;20066;-58
2021/12/07 06:00:44;;;;;;;3.45;1.38;;;;;;;1.27;82.06;96909.69;5022446;28;20045;-58
2021/12/07 06:03:12;;;;;;;3.25;1.58;;;;;;;1.14;83.60;96907.84;5023003;28;20064;-58
2021/12/07 06:05:40;;;;;;;4.55;1.42;;;;;;;1.16;83.07;96921.78;5023461;28;20082;-58
2021/12/07 06:08:07;;;;;;;5.00;1.30;;;;;;;1.16;83.12;96919.94;5022978;28;20052;-58
2021/12/07 06:10:34;;;;;;;5.82;1.35;;;;;;;1.14;83.29;96931.84;5022799;28;20171;-58
2021/12/07 06:13:01;;;;;;;5.75;1.65;;;;;;;1.11;83.54;96940.25;5020931;28;20045;-59
2021/12/07 06:15:32;;;;;;;4.18;1.60;;;;;;;1.09;83.92;96942.28;5023186;28;20057;-58
2021/12/07 06:17:59;;;;;;;3.17;1.45;;;;;;;1.11;83.86;96941.03;5023088;28;20045;-59
2021/12/07 06:20:25;;;;;;;3.97;1.85;;;;;;;1.13;83.94;96947.00;5017263;28;20041;-67
2021/12/07 06:23:12;;;;;;;4.95;1.67;;;;;;;1.17;83.63;96950.91;5024741;28;20046;-59
2021/12/07 06:25:39;;;;;;;4.38;1.40;;;;;;;1.26;83.37;96948.06;5027126;28;20046;-58
2021/12/07 06:28:06;;;;;;;4.85;1.23;;;;;;;1.22;83.71;96954.81;5025603;28;20455;-59
2021/12/07 06:30:39;;;;;;;4.40;1.60;;;;;;;1.19;83.92;96966.72;5026476;28;20601;-59
2021/12/07 06:33:05;;;;;;;5.10;1.60;;;;;;;1.23;84.11;96961.78;5027895;28;20558;-58
2021/12/07 06:35:32;;;;;;;4.45;1.75;;;;;;;1.25;83.66;96957.09;5026103;28;20566;-59
2021/12/07 06:37:59;;;;;;;6.40;1.50;;;;;;;1.26;84.43;96964.88;5026687;28;20651;-58
2021/12/07 06:40:25;;;;;;;3.95;1.00;;;;;;;1.31;83.96;96966.94;5038512;28;20493;-59
2021/12/07 06:42:52;;;;;;;4.97;1.58;;;;;;;1.37;83.55;96968.78;5027056;28;20516;-59
2021/12/07 06:45:18;;;;;;;3.88;1.20;;;;;;;1.43;82.53;96969.81;5021015;28;20034;-59
2021/12/07 06:47:45;;;;;;;7.30;1.40;;;;;;;1.51;82.59;96969.63;5019776;28;20499;-59
2021/12/07 06:50:12;;;;;;;10.80;1.85;;;;;;;1.46;82.49;96966.75;5024968;28;20045;-58
2021/12/07 06:52:39;;;;;;;4.25;1.92;;;;;;;1.49;83.26;96965.53;5023610;28;20041;-59
2021/12/07 06:55:07;;;;;;;1.98;0.90;;;;;;;1.46;82.17;96969.44;5029671;28;20052;-58
2021/12/07 06:57:33;;;;;;;4.53;1.30;;;;;;;1.41;82.30;96971.88;5026165;28;20041;-58
2021/12/07 07:00:01;;;;;;;6.13;1.50;;;;;;;1.43;82.17;96986.66;5025529;28;20715;-57
2021/12/07 07:02:27;;;;;;;2.60;0.95;;;;;;;1.58;81.39;96992.84;5017688;28;20041;-58
2021/12/07 07:04:54;;;;;;;6.07;1.40;;;;;;;1.48;81.79;97004.75;5032880;28;20048;-58
2021/12/07 07:07:22;;;;;;;2.38;1.10;;;;;;;1.46;82.18;97008.63;5029656;28;20060;-58
2021/12/07 07:09:49;;;;;;;8.32;1.75;;;;;;;1.59;80.88;97010.50;5008482;28;20846;-56
2021/12/07 07:12:16;;;;;;;7.28;1.80;;;;;;;1.54;80.95;97021.78;5017810;28;20060;-59
2021/12/07 07:14:43;;;;;;;4.53;1.30;;;;;;;1.52;81.33;97037.19;5026643;28;20613;-58
2021/12/07 07:17:10;;;;;;;4.72;1.35;;;;;;;1.49;81.49;97033.06;5025976;28;20048;-58
2021/12/07 07:19:42;;;;;;;4.15;1.30;;;;;;;1.43;82.18;97018.69;5022912;28;20078;-58
2021/12/07 07:22:09;;;;;;;5.50;1.88;;;;;;;1.41;82.55;97027.91;5020977;28;20472;-58
2021/12/07 07:24:36;;;;;;;4.63;1.60;;;;;;;1.36;82.68;97020.50;5022883;28;20037;-58
2021/12/07 07:27:04;;;;;;;7.70;1.40;;;;;;;1.41;82.18;97022.59;5024540;28;20049;-58
2021/12/07 07:29:30;;;;;;;3.75;1.45;;;;;;;1.33;82.70;97034.28;5022286;28;20095;-64
2021/12/07 07:31:57;;;;;;;3.22;1.00;;;;;;;1.31;82.26;97038.97;5018016;28;20087;-63
2021/12/07 07:34:24;;;;;;;5.18;1.02;;;;;;;1.37;82.15;97037.34;5019698;28;20646;-61
2021/12/07 07:36:51;;;;;;;7.00;1.17;;;;;;;1.38;82.02;97037.16;5020858;28;20513;-59
2021/12/07 07:39:19;;;;;;;5.22;1.73;;;;;;;1.39;82.15;97049.47;5023314;28;20598;-64
2021/12/07 07:41:45;;;;;;;4.57;1.58;;;;;;;1.51;81.71;97049.69;5017293;28;20037;-61
2021/12/07 07:44:12;;;;;;;2.92;1.27;;;;;;;1.52;80.92;97050.53;5023807;28;20427;-62
2021/12/07 07:46:44;;;;;;;8.18;1.40;;;;;;;1.52;81.78;97050.53;5015229;28;20060;-63
2021/12/07 07:49:11;;;;;;;3.97;1.40;;;;;;;1.55;81.71;97047.47;5024871;28;20045;-63
2021/12/07 07:51:38;;;;;;;4.95;1.60;;;;;;;1.56;80.94;97054.44;5020362;28;20038;-64
2021/12/07 07:54:05;;;;;;;2.88;1.00;;;;;;;1.59;80.32;97064.72;5028493;28;20047;-64
2021/12/07 07:56:33;;;;;;;4.43;1.65;;;;;;;1.59;80.66;97069.22;5022507;28;20096;-63
2021/12/07 07:59:00;;;;;;;6.32;1.30;;;;;;;1.65;79.92;97071.06;5037976;28;20087;-64
2021/12/07 08:01:30;;;;;;;8.65;1.80;;;;;;;1.59;80.21;97059.38;5025640;28;20069;-62
2021/12/07 08:04:00;;;;;;;4.65;1.50;;;;;;;1.64;80.62;97066.75;5021932;28;20046;-63
2021/12/07 08:06:27;;;;;;;4.43;1.17;;;;;;;1.70;80.32;97068.63;5027130;28;20041;-63
2021/12/07 08:08:54;;;;;;;5.25;1.48;;;;;;;1.74;80.85;97056.53;5025372;28;20038;-63
2021/12/07 08:11:20;;;;;;;7.38;1.38;;;;;;;1.73;79.47;97070.88;5022045;28;20041;-64
2021/12/07 08:13:54;;;;;;;5.68;1.52;;;;;;;1.76;78.93;97081.16;5020518;28;20124;-64
2021/12/07 08:16:23;;;;;;;5.88;2.13;;;;;;;1.69;80.01;97081.16;5030402;28;20041;-65
2021/12/07 08:18:52;;;;;;;7.82;1.17;;;;;;;1.69;79.40;97085.66;5023163;28;20091;-61
2021/12/07 08:21:22;;;;;;;6.40;1.77;;;;;;;1.64;79.62;97074.75;5025869;28;20049;-64
2021/12/07 08:23:49;;;;;;;6.68;1.17;;;;;;;1.64;79.12;97083.59;5024529;28;20050;-64
2021/12/07 08:26:22;;;;;;;4.90;1.48;;;;;;;1.73;78.57;97078.09;5031584;28;20041;-59
2021/12/07 08:28:50;;;;;;;4.13;1.10;;;;;;;1.72;79.14;97084.41;5028595;28;20049;-64
2021/12/07 08:31:17;;;;;;;4.80;2.15;;;;;;;1.67;78.26;97075.16;5021062;28;20041;-64
2021/12/07 08:33:44;;;;;;;7.15;1.45;;;;;;;1.80;79.24;97086.91;5022592;28;20443;-59
2021/12/07 08:36:11;;;;;;;6.40;1.67;;;;;;;1.85;78.28;97084.47;5023606;28;20045;-56
2021/12/07 08:38:39;;;;;;;4.10;1.55;;;;;;;1.78;78.86;97073.78;5023086;28;20099;-60
2021/12/07 08:41:06;;;;;;;11.50;5.38;;;;;;;1.88;78.28;97081.38;5020641;28;20597;-59
2021/12/07 08:43:35;;;;;;;5.78;1.50;;;;;;;2.03;76.56;97081.19;5015259;28;20050;-59
2021/12/07 08:46:05;;;;;;;1.38;0.73;;;;;;;2.08;76.66;97088.59;5019792;28;20115;-59
2021/12/07 08:48:34;;;;;;;10.07;3.75;;;;;;;2.10;76.73;97086.53;5022875;28;20052;-60
2021/12/07 08:51:02;;;;;;;8.27;2.40;;;;;;;2.15;77.73;97078.75;5022444;28;20042;-62
2021/12/07 08:53:29;;;;;;;7.38;1.42;;;;;;;2.15;76.89;97093.94;5023833;28;20038;-55
2021/12/07 09:01:32;;;;;;;10.15;4.72;;;;;;;2.13;77.89;97091.47;5018421;28;20049;-58
2021/12/07 09:04:01;;;;;;;6.03;1.77;;;;;;;2.14;76.86;97094.97;5015294;28;20107;-65
2021/12/07 09:06:29;;;;;;;6.85;2.22;;;;;;;2.23;76.88;97100.91;5019720;28;20056;-63
2021/12/07 09:08:56;;;;;;;4.22;1.17;;;;;;;2.30;76.27;97099.09;5021553;28;20045;-62
2021/12/07 09:11:24;;;;;;;3.08;1.27;;;;;;;2.33;76.00;97106.69;5027413;28;20045;-62
2021/12/07 09:13:51;;;;;;;4.95;1.20;;;;;;;2.40;75.30;97115.50;5026005;28;20053;-64
2021/12/07 09:16:19;;;;;;;8.57;1.88;;;;;;;2.41;75.67;97103.00;5027153;28;20059;-60
2021/12/07 09:18:47;;;;;;;6.28;1.10;;;;;;;2.46;74.16;97105.84;5026474;28;20038;-63
2021/12/07 09:21:15;;;;;;;10.57;2.15;;;;;;;2.50;75.04;97108.97;5026508;28;20107;-63
2021/12/07 09:23:42;;;;;;;10.90;3.75;;;;;;;2.60;75.18;97115.53;5026734;28;20099;-63
2021/12/07 09:26:09;;;;;;;4.82;1.35;;;;;;;2.66;74.46;97105.88;5026863;28;20056;-62
2021/12/07 09:28:37;;;;;;;4.93;1.30;;;;;;;2.69;74.38;97104.63;5035273;28;20045;-62
2021/12/07 09:31:07;;;;;;;3.65;0.98;;;;;;;2.90;73.29;97098.19;5033918;28;20049;-61
2021/12/07 09:33:34;;;;;;;5.85;1.35;;;;;;;3.14;72.50;97103.91;5026716;28;20045;-61
2021/12/07 09:36:03;;;;;;;5.55;1.00;;;;;;;3.24;72.79;97098.91;5023721;28;20048;-65
2021/12/07 09:38:30;;;;;;;7.28;2.00;;;;;;;3.18;72.18;97118.50;5029865;28;20091;-65
2021/12/07 09:40:57;;;;;;;7.40;1.13;;;;;;;3.04;71.09;97119.56;5031485;28;20045;-63
2021/12/07 09:43:24;;;;;;;3.85;1.35;;;;;;;2.83;72.40;97114.25;5030932;28;20049;-63
2021/12/07 09:45:50;;;;;;;5.03;0.73;;;;;;;2.75;73.61;97103.78;5039610;28;20052;-57
2021/12/07 09:48:18;;;;;;;5.68;1.35;;;;;;;2.73;73.24;97116.53;5042120;28;20472;-56
2021/12/07 09:50:49;;;;;;;5.38;1.05;;;;;;;2.82;73.47;97104.59;5023130;28;20045;-64
2021/12/07 09:53:16;;;;;;;5.43;1.45;;;;;;;2.88;72.57;97115.47;5031825;28;20060;-64
2021/12/07 09:55:47;;;;;;;4.20;1.02;;;;;;;2.87;71.89;97111.97;5027897;28;20041;-66
2021/12/07 09:58:16;;;;;;;4.85;1.70;;;;;;;2.89;73.17;97127.81;5021101;28;20049;-66
2021/12/07 10:00:46;;;;;;;4.90;1.98;;;;;;;2.86;72.19;97119.19;5026746;28;20509;-60
2021/12/07 10:03:13;;;;;;;5.55;1.50;;;;;;;2.83;71.52;97121.44;5026758;28;20111;-63
2021/12/07 10:05:41;;;;;;;5.78;1.52;;;;;;;2.83;71.86;97126.78;5027169;28;20095;-63
2021/12/07 10:08:09;;;;;;;8.30;2.50;;;;;;;2.81;72.82;97126.19;5029214;28;20045;-63
2021/12/07 10:10:39;;;;;;;2.22;0.82;;;;;;;2.91;71.47;97129.25;5026403;28;20033;-63
2021/12/07 10:13:08;;;;;;;6.25;1.15;;;;;;;2.89;71.86;97115.28;5028564;28;20049;-59
2021/12/07 10:15:36;;;;;;;6.35;1.42;;;;;;;2.83;71.79;97110.75;5026430;28;20060;-62
2021/12/07 10:18:17;;;;;;;4.63;1.48;;;;;;;2.85;71.18;97114.06;5025397;28;20076;-60
2021/12/07 10:21:14;;;;;;;5.18;1.30;;;;;;;3.23;69.23;97105.31;5024776;28;20034;-59
2021/12/07 10:23:40;;;;;;;6.40;1.73;;;;;;;3.48;70.29;97101.94;5026002;28;20041;-59
2021/12/07 10:26:09;;;;;;;4.82;0.95;;;;;;;3.66;68.30;97099.56;5028582;28;20045;-58
2021/12/07 10:28:47;;;;;;;6.32;1.23;;;;;;;3.98;67.27;97089.69;5027733;28;20053;-64
2021/12/07 10:31:25;;;;;;;2.03;0.80;;;;;;;3.96;67.62;97089.09;5025891;28;20037;-58
2021/12/07 10:33:58;;;;;;;4.80;1.50;;;;;;;3.93;67.95;97075.28;5023727;28;20057;-59
2021/12/07 10:36:28;;;;;;;3.75;1.10;;;;;;;3.97;67.03;97074.66;5026033;28;20048;-57
2021/12/07 10:38:59;;;;;;;4.55;1.25;;;;;;;3.88;68.01;97078.63;5022462;28;20069;-58
2021/12/07 10:41:26;;;;;;;8.15;1.35;;;;;;;3.92;68.21;97077.16;5029416;28;20037;-59
2021/12/07 10:44:06;;;;;;;4.85;0.93;;;;;;;3.76;67.58;97068.59;5029047;28;20120;-57
2021/12/07 10:46:37;;;;;;;4.47;0.90;;;;;;;3.88;67.49;97071.41;5020561;28;20053;-58
2021/12/07 10:49:11;;;;;;;5.68;0.80;;;;;;;3.96;68.16;97064.97;5029658;28;20485;-58
2021/12/07 10:51:39;;;;;;;5.20;1.90;;;;;;;3.70;65.70;97060.63;5021348;28;20124;-58
2021/12/07 10:54:06;;;;;;;5.78;0.98;;;;;;;3.66;66.84;97052.19;5030453;28;20087;-59
2021/12/07 10:56:38;;;;;;;4.35;0.93;;;;;;;3.41;67.60;97046.75;5029729;28;20045;-59
2021/12/07 10:59:09;;;;;;;2.90;0.80;;;;;;;3.47;65.63;97041.38;5017987;28;22288;-58
2021/12/07 11:01:39;;;;;;;2.83;0.80;;;;;;;3.63;66.82;97044.59;5023110;28;20825;-58
2021/12/07 11:04:24;;;;;;;5.43;0.90;;;;;;;3.77;65.27;97032.75;5030243;28;20508;-57
2021/12/07 11:07:04;;;;;;;12.63;1.70;;;;;;;3.57;66.71;97032.88;5024193;28;20047;-56
2021/12/07 11:09:57;;;;;;;4.25;1.60;;;;;;;3.66;64.37;97035.31;5014816;28;20037;-57
2021/12/07 11:12:26;;;;;;;3.33;0.80;;;;;;;3.70;65.23;97032.00;5025627;28;20037;-58
2021/12/07 11:14:58;;;;;;;2.47;0.90;;;;;;;3.72;64.70;97029.91;5025513;28;20045;-57
2021/12/07 11:17:32;;;;;;;5.03;0.85;;;;;;;3.77;64.23;97027.38;5023440;28;20041;-63
2021/12/07 11:20:00;;;;;;;2.03;0.70;;;;;;;3.87;64.43;97032.28;5025360;28;20859;-63
2021/12/07 11:22:31;;;;;;;8.85;2.17;;;;;;;3.88;64.61;97030.41;5018337;28;20041;-64
2021/12/07 11:25:02;;;;;;;5.75;1.23;;;;;;;3.97;65.59;97023.75;5028151;28;20049;-65
2021/12/07 11:30:29;;;;;;;10.25;2.83;;;;;;;3.84;64.29;97029.22;5013328;28;20053;-65
2021/12/07 11:32:59;;;;;;;7.93;1.95;;;;;;;3.81;64.82;97010.91;5030465;28;20048;-64
2021/12/07 11:35:28;;;;;;;9.32;2.15;;;;;;;3.72;64.61;97018.38;5033356;28;20459;-65
2021/12/07 11:37:58;;;;;;;7.35;1.25;;;;;;;3.86;64.99;97021.75;5030962;28;20057;-65
2021/12/07 11:40:29;;;;;;;7.28;1.15;;;;;;;4.01;64.57;97010.72;5031857;28;20045;-67
2021/12/07 11:42:56;;;;;;;7.30;1.20;;;;;;;4.11;64.56;97004.88;5024212;28;20042;-65
2021/12/07 11:45:26;;;;;;;3.70;1.00;;;;;;;4.15;64.19;96998.88;5036381;28;20041;-64
2021/12/07 11:47:59;;;;;;;8.88;1.65;;;;;;;4.38;62.74;96996.59;5036731;28;20064;-65
2021/12/07 11:50:31;;;;;;;5.47;0.90;;;;;;;4.50;60.97;96992.16;5025103;28;20080;-58
2021/12/07 11:53:11;;;;;;;4.93;1.40;;;;;;;4.60;62.21;96980.91;5022195;28;20709;-64
2021/12/07 11:55:42;;;;;;;4.82;1.00;;;;;;;4.56;62.65;96985.06;5024268;28;20152;-65
2021/12/07 11:58:09;;;;;;;4.82;2.30;;;;;;;4.58;61.53;96974.13;5029651;28;20049;-65
2021/12/07 12:00:42;;;;;;;7.97;1.05;;;;;;;4.64;62.05;96983.97;5019753;28;20046;-56
2021/12/07 12:03:17;;;;;;;7.22;1.02;;;;;;;4.76;59.45;96970.63;5026688;28;20045;-58
2021/12/07 12:05:47;;;;;;;1.95;0.95;;;;;;;4.80;57.57;96971.84;5015042;28;20045;-65
2021/12/07 12:08:18;;;;;;;7.72;2.30;;;;;;;4.66;61.23;96969.31;5021671;28;20063;-60
2021/12/07 12:11:25;;;;;;;2.78;0.73;;;;;;;4.78;58.26;96958.63;5026563;28;20052;-60
2021/12/07 12:14:29;;;;;;;2.33;0.95;;;;;;;4.48;59.74;96943.31;5012060;28;20742;-65
2021/12/07 12:17:31;;;;;;;4.78;0.93;;;;;;;4.60;61.13;96938.00;5022740;28;20091;-65
2021/12/07 12:20:16;;;;;;;2.57;0.70;;;;;;;4.60;60.33;96937.19;5018217;28;20045;-66
2021/12/07 12:22:49;;;;;;;3.65;0.77;;;;;;;4.51;60.71;96940.19;5041743;28;20345;-64
2021/12/07 12:25:19;;;;;;;5.68;1.70;;;;;;;4.38;59.84;96940.31;5030818;28;20056;-65
2021/12/07 12:27:47;;;;;;;3.45;0.82;;;;;;;4.51;59.00;96932.13;5031968;28;20042;-65
2021/12/07 12:30:20;;;;;;;2.88;0.70;;;;;;;4.60;59.23;96926.47;5033915;28;20040;-65
2021/12/07 12:32:54;;;;;;;4.20;0.90;;;;;;;4.62;58.50;96910.97;5025658;28;20045;-58
2021/12/07 12:35:40;;;;;;;8.73;2.70;;;;;;;4.39;58.91;96915.97;5019334;28;20520;-63
2021/12/07 12:38:27;;;;;;;4.40;1.30;;;;;;;4.25;60.56;96911.78;5025496;28;20396;-57
2021/12/07 12:40:57;;;;;;;6.10;1.63;;;;;;;4.09;59.72;96905.16;5016511;28;20100;-65
2021/12/07 12:43:42;;;;;;;5.85;1.00;;;;;;;4.07;59.57;96907.22;5028968;28;20674;-65
2021/12/07 12:46:16;;;;;;;3.22;0.73;;;;;;;4.12;59.38;96912.75;5025994;28;20052;-58
2021/12/07 12:48:49;;;;;;;10.38;3.42;;;;;;;4.26;59.05;96916.94;5018024;28;20095;-66
2021/12/07 12:51:17;;;;;;;8.77;1.10;;;;;;;4.27;59.11;96920.41;5031544;28;20041;-66
2021/12/07 12:53:46;;;;;;;4.55;0.88;;;;;;;4.29;58.71;96911.13;5019559;28;20053;-65
2021/12/07 12:56:16;;;;;;;7.75;1.02;;;;;;;4.43;58.66;96906.44;5028172;28;20083;-65
2021/12/07 12:58:47;;;;;;;7.22;1.90;;;;;;;4.53;58.59;96894.34;5026894;28;20052;-66
2021/12/07 13:01:37;;;;;;;1.98;0.65;;;;;;;4.32;57.73;96906.38;5036225;28;20060;-59
2021/12/07 13:04:13;;;;;;;2.72;0.70;;;;;;;4.25;58.13;96903.75;5026726;28;20051;-62
2021/12/07 13:07:06;;;;;;;10.82;2.38;;;;;;;4.08;59.36;96909.69;5027327;28;20045;-58
2021/12/07 13:09:36;;;;;;;6.90;1.90;;;;;;;4.07;59.63;96912.59;5025974;28;20053;-59
2021/12/07 13:12:26;;;;;;;4.88;1.42;;;;;;;4.05;58.61;96910.13;5039341;28;20049;-58
2021/12/07 13:15:02;;;;;;;5.63;0.98;;;;;;;4.06;57.95;96902.91;5028713;28;20037;-58
2021/12/07 13:17:34;;;;;;;3.00;0.98;;;;;;;4.13;59.09;96901.00;5020836;28;20500;-64
2021/12/07 13:20:14;;;;;;;6.00;1.42;;;;;;;3.95;60.06;96897.25;5037509;28;20059;-65
2021/12/07 13:22:59;;;;;;;6.75;1.50;;;;;;;3.83;60.61;96899.03;5037367;28;20037;-65
2021/12/07 13:25:40;;;;;;;8.02;1.20;;;;;;;3.69;59.64;96896.44;5029198;28;20089;-65
2021/12/07 13:28:29;;;;;;;6.63;1.25;;;;;;;3.63;58.59;96898.16;5028664;28;20053;-63
2021/12/07 13:31:18;;;;;;;5.13;1.20;;;;;;;3.64;58.93;96885.56;5026635;28;20046;-63
2021/12/07 13:33:54;;;;;;;2.85;0.70;;;;;;;3.69;59.94;96891.09;5024769;28;20041;-65
2021/12/07 13:36:32;;;;;;;6.90;0.82;;;;;;;3.86;58.08;96896.72;5030431;28;20170;-66